Aérodrome :
LOGIN :

S'inscrire | Disclaimer

   EN    FR    IT 

 










Légende :    VFR   VFR Marginal   IFR   IFR Intensif   IFR Très Intensif
Visi : 
Plafond : 
>= 8 km
>= 3000ft
5 à 8 km
1000 à 3000 ft
1500m à 5 km
500 à 1000 ft
800 à 1500m
200 à 500 ft
< 800m
< 200 ft
Symboles :   Orages  Brouillard  Fortes neiges  Fortes précipitations  Vent > 20 kt
SIGMETs :   Divers  Orages  Givrage  Turbulence  Onde Orograph.  Cendres Volcan.







- Altitude de l'aérodrome : 31 ft
- Code IATA : INV
- Voir les cartes d'approche


EGPE - Inverness

DERNIER METAR :
  • 241220Z 24014KT 9999 FEW006 FEW020CB 03/01 Q1003

METARs EXPIRÉS :
  • 241150Z 23014KT 9999 FEW006 FEW020CB 02/00 Q1003
  • 241120Z 21015KT 9999 FEW002 SCT015CB BKN030 02/00 Q1003
  • 241050Z 24018KT 9999 VCSH FEW003 SCT015CB 02/M00 Q1003
  • 241020Z 24015KT 9999 VCSH FEW010 FEW015CB SCT028 02/00 Q1003
  • 240950Z 24018KT 9999 FEW010 FEW015CB 01/M00 Q1002

TAF TAF EGPE
Valide du 24 à 12h jusqu'au 24 à 21h UTC


241107Z 2412/2421 23014KT 9999 FEW015
TEMPO 2412/2421 25017G27KT 6000 SHRA BKN012CB
PROB30
TEMPO 2412/2421 3000 -SHSN BKN007
ATIS : +44 1667 464 255
Pas de NOTAMs connus pour ce terrain.



MET'MAP, la Météo Aéronautique d'un coup d'oeil ! - Copyright ORBIFLY Décembre 2007 - Disclaimer

ORBIFLY MET'MAP TEAM :

Programmation & Développement : Alexandra Zaïnal
Conception & Développement : Baudouin d'Aumeries
Co-Programmation & Développement : Marc-Olivier Méhu
Soutien technique & logistique : Manuel Goepfert

Contact : metmap@orbifly.com




SOURCES & CREDITS :

   NOAA